Time;durP1;ratioP1;P1;durP2;ratioP2;P2;SDS_P1;SDS_P2;PMS_P1;PMS_P2;Temp;Humidity;BMP_temperature;BMP_pressure;BME280_temperature;BME280_humidity;BME280_pressure;Samples;Min_cycle;Max_cycle;Signal;HPM_P1;HPM_P2
2023/01/06 00:00:35;;;;;;;2.75;1.62;;;;;;;6.22;88.51;100730.12;2702570;85;21078;-84
2023/01/06 00:04:38;;;;;;;1.15;0.80;;;;;;;6.15;88.54;100733.57;2708478;86;21004;-84
2023/01/06 00:08:39;;;;;;;3.05;0.95;;;;;;;6.10;88.94;100731.21;2733308;85;21004;-84
2023/01/06 00:12:49;;;;;;;3.98;1.10;;;;;;;6.13;88.38;100736.31;2704975;86;21055;-84
2023/01/06 00:16:50;;;;;;;4.97;2.80;;;;;;;6.20;88.78;100739.47;2695625;87;21586;-84
2023/01/06 00:20:51;;;;;;;4.05;1.30;;;;;;;6.18;89.41;100741.80;2703143;85;21535;-83
2023/01/06 00:24:52;;;;;;;2.72;1.27;;;;;;;6.18;90.48;100747.92;2709810;85;21045;-84
2023/01/06 00:28:55;;;;;;;4.55;1.35;;;;;;;6.18;90.58;100748.41;2786331;83;21079;-84
2023/01/06 00:32:57;;;;;;;2.12;0.78;;;;;;;6.06;90.00;100762.67;2802227;83;21076;-84
2023/01/06 00:36:58;;;;;;;4.25;1.60;;;;;;;6.03;90.09;100766.80;2802537;83;21078;-84
2023/01/06 00:42:02;;;;;;;2.00;1.30;;;;;;;6.11;89.61;100773.85;2744194;82;21106;-84
2023/01/06 00:45:09;;;;;;;3.35;1.22;;;;;;;6.04;89.32;100775.59;2821310;81;21169;-84
2023/01/06 00:49:10;;;;;;;1.47;0.80;;;;;;;6.03;89.48;100783.97;2723348;85;21122;-84
2023/01/06 00:53:11;;;;;;;2.55;1.32;;;;;;;6.00;90.39;100784.11;2748615;85;21049;-83
2023/01/06 00:57:12;;;;;;;3.87;1.05;;;;;;;5.98;91.40;100783.34;2700452;86;21508;-83
2023/01/06 01:01:13;;;;;;;1.25;0.68;;;;;;;5.84;90.92;100787.58;2741623;85;21045;-84
2023/01/06 01:05:16;;;;;;;2.95;1.22;;;;;;;5.74;91.20;100789.48;2741260;85;21015;-84
2023/01/06 01:09:22;;;;;;;1.20;1.10;;;;;;;5.62;91.55;100793.17;2742010;85;21086;-83
2023/01/06 01:13:23;;;;;;;1.67;0.88;;;;;;;5.56;91.16;100794.80;2732934;84;21022;-83
2023/01/06 01:17:28;;;;;;;2.72;0.60;;;;;;;5.52;91.07;100799.41;2709370;85;21070;-83
2023/01/06 01:21:29;;;;;;;1.70;0.90;;;;;;;5.45;91.65;100805.92;2747139;85;21305;-83
2023/01/06 01:25:30;;;;;;;7.78;0.75;;;;;;;5.55;91.59;100812.89;2767850;84;21565;-83
2023/01/06 01:29:31;;;;;;;1.90;0.60;;;;;;;5.58;90.78;100818.88;2785125;83;21544;-83
2023/01/06 01:33:33;;;;;;;1.85;0.60;;;;;;;5.74;90.57;100815.88;2847623;82;21414;-83
2023/01/06 01:37:34;;;;;;;4.80;1.20;;;;;;;5.79;89.74;100812.06;2784983;82;21340;-83
2023/01/06 01:41:35;;;;;;;3.00;0.93;;;;;;;5.79;89.00;100815.16;2829350;83;21340;-83
2023/01/06 01:45:36;;;;;;;3.70;1.17;;;;;;;5.77;88.93;100813.94;2800222;84;21509;-83
2023/01/06 01:49:40;;;;;;;2.33;1.30;;;;;;;5.68;88.80;100814.41;2746141;84;21114;-83
2023/01/06 01:53:46;;;;;;;4.03;1.42;;;;;;;5.58;88.53;100818.88;2725618;85;21047;-83
2023/01/06 01:57:56;;;;;;;3.37;0.82;;;;;;;5.54;88.15;100828.34;2764119;85;21083;-82
2023/01/06 02:01:57;;;;;;;4.87;0.90;;;;;;;5.57;88.29;100834.77;2726258;84;21015;-83
2023/01/06 02:06:03;;;;;;;3.92;1.07;;;;;;;5.53;87.77;100839.38;2740314;85;21059;-83
2023/01/06 02:10:18;;;;;;;11.50;1.07;;;;;;;5.50;88.03;100834.27;2740906;83;21106;-83
2023/01/06 02:14:23;;;;;;;0.93;0.60;;;;;;;5.53;87.46;100835.42;2719781;85;21070;-83
2023/01/06 02:18:58;;;;;;;2.37;1.47;;;;;;;5.56;87.35;100837.89;2747897;84;21600;-83
2023/01/06 02:23:36;;;;;;;3.15;1.27;;;;;;;5.53;86.70;100832.78;2778366;83;21067;-83
2023/01/06 02:28:24;;;;;;;3.17;1.07;;;;;;;5.49;86.86;100834.33;2766618;83;21018;-83
2023/01/06 02:32:35;;;;;;;;;;;;;;;5.50;86.68;100830.75;2789691;83;21085;-83
2023/01/06 02:36:56;;;;;;;3.08;1.22;;;;;;;5.32;86.48;100833.89;2790833;82;20119;-83
2023/01/06 02:41:21;;;;;;;2.47;1.57;;;;;;;5.13;86.89;100828.23;2786138;83;20983;-83
2023/01/06 02:45:45;;;;;;;5.37;1.50;;;;;;;5.06;87.38;100826.81;2791762;83;21027;-83
2023/01/06 02:50:01;;;;;;;1.77;1.27;;;;;;;4.99;87.63;100835.03;2783133;83;21095;-83
2023/01/06 02:54:14;;;;;;;3.33;0.97;;;;;;;4.98;87.94;100825.87;2770178;83;21114;-83
2023/01/06 02:58:54;;;;;;;1.40;1.12;;;;;;;5.04;87.80;100826.91;2801492;82;21386;-83
2023/01/06 03:03:00;;;;;;;3.45;1.47;;;;;;;5.08;87.70;100822.30;2822412;82;21030;-83
2023/01/06 03:07:04;;;;;;;0.70;0.68;;;;;;;5.18;87.53;100820.06;2800972;82;21022;-83
2023/01/06 03:11:06;;;;;;;6.90;1.82;;;;;;;5.22;87.86;100810.60;2788327;84;21705;-83
2023/01/06 03:15:08;;;;;;;1.30;1.15;;;;;;;5.36;88.64;100809.05;2781702;83;21317;-83
2023/01/06 03:19:10;;;;;;;1.12;1.00;;;;;;;5.46;88.38;100810.27;2823181;82;21051;-83
2023/01/06 03:23:13;;;;;;;7.03;1.47;;;;;;;5.56;88.28;100810.63;2751576;83;21597;-83
2023/01/06 03:27:19;;;;;;;2.47;1.25;;;;;;;5.66;88.64;100811.00;2805683;82;21079;-83
2023/01/06 03:31:38;;;;;;;12.70;1.40;;;;;;;5.80;88.26;100817.73;2784770;83;21058;-83
2023/01/06 03:36:06;;;;;;;5.55;2.42;;;;;;;5.89;87.55;100819.48;2752498;82;21721;-83
2023/01/06 03:40:27;;;;;;;5.33;2.20;;;;;;;5.83;87.02;100826.80;2825226;83;21083;-83
2023/01/06 03:44:45;;;;;;;3.90;1.90;;;;;;;5.84;87.38;100825.86;2764870;84;21019;-83
2023/01/06 03:49:09;;;;;;;1.87;1.05;;;;;;;5.92;87.59;100824.14;2825552;83;21075;-84
2023/01/06 03:53:34;;;;;;;1.72;1.25;;;;;;;6.00;87.59;100808.75;2833960;83;21073;-84
2023/01/06 03:57:41;;;;;;;7.40;1.92;;;;;;;6.12;86.70;100813.86;2815158;82;21114;-83
2023/01/06 04:01:44;;;;;;;3.35;1.82;;;;;;;6.12;86.62;100812.53;2824214;83;21082;-83
2023/01/06 04:05:45;;;;;;;3.40;2.15;;;;;;;6.08;86.78;100802.22;2762038;84;21693;-83
2023/01/06 04:09:46;;;;;;;4.67;2.35;;;;;;;6.13;86.08;100803.67;2780511;83;21003;-83
2023/01/06 04:13:47;;;;;;;2.92;1.42;;;;;;;6.22;86.28;100801.00;2816414;83;21149;-83
2023/01/06 04:17:49;;;;;;;2.25;1.40;;;;;;;6.31;85.38;100802.28;2791671;83;21386;-83
2023/01/06 04:21:50;;;;;;;1.50;1.37;;;;;;;6.34;84.79;100807.38;2793195;83;21202;-83
2023/01/06 04:25:51;;;;;;;6.22;1.45;;;;;;;6.32;84.57;100802.66;2729461;85;21068;-83
2023/01/06 04:29:53;;;;;;;3.35;1.35;;;;;;;6.35;85.33;100813.05;2738471;84;21303;-83
2023/01/06 04:33:54;;;;;;;3.42;2.02;;;;;;;6.29;85.59;100805.48;2803991;83;21013;-83
2023/01/06 04:37:55;;;;;;;5.70;1.87;;;;;;;6.28;85.40;100790.08;2797637;83;21017;-83
2023/01/06 04:41:56;;;;;;;2.92;1.02;;;;;;;6.27;84.88;100775.16;2747385;83;20998;-83
2023/01/06 04:45:58;;;;;;;2.30;1.30;;;;;;;6.26;84.98;100777.88;2796801;83;21065;-83
2023/01/06 04:49:59;;;;;;;1.80;1.42;;;;;;;6.19;84.57;100785.77;2798011;83;21094;-83
2023/01/06 04:54:01;;;;;;;3.12;1.20;;;;;;;5.94;86.47;100789.73;2795595;83;21112;-83
2023/01/06 04:58:02;;;;;;;3.42;1.30;;;;;;;5.68;87.74;100779.64;2798459;83;21049;-83
2023/01/06 05:02:03;;;;;;;7.92;2.60;;;;;;;5.53;88.22;100776.49;2747113;83;21081;-84
2023/01/06 05:06:08;;;;;;;3.80;2.65;;;;;;;5.47;88.88;100776.34;2770606;83;21015;-83
2023/01/06 05:10:10;;;;;;;2.70;1.80;;;;;;;5.41;89.09;100770.08;2793655;83;21067;-83
2023/01/06 05:14:12;;;;;;;3.98;1.80;;;;;;;5.32;89.50;100772.73;2743021;84;21059;-84
2023/01/06 05:18:13;;;;;;;13.98;2.45;;;;;;;5.19;90.90;100779.11;2745258;84;21066;-84
2023/01/06 05:22:14;;;;;;;3.47;2.67;;;;;;;5.17;91.55;100788.89;2796609;83;21076;-84
2023/01/06 05:26:19;;;;;;;3.52;2.52;;;;;;;5.13;91.83;100789.50;2768047;83;21092;-84
2023/01/06 05:30:20;;;;;;;8.30;3.98;;;;;;;5.08;92.37;100779.66;2700037;85;21043;-84
2023/01/06 05:34:22;;;;;;;10.68;5.25;;;;;;;4.96;93.87;100771.91;2769812;84;21072;-84
2023/01/06 05:38:23;;;;;;;10.20;4.80;;;;;;;4.99;94.98;100777.48;2698739;85;21082;-84
2023/01/06 05:42:24;;;;;;;4.10;2.77;;;;;;;4.96;96.37;100786.41;2709048;84;21571;-84
2023/01/06 05:46:25;;;;;;;5.30;2.58;;;;;;;5.05;96.03;100775.87;2748793;84;21639;-84
2023/01/06 05:50:26;;;;;;;5.30;2.62;;;;;;;5.28;95.22;100790.49;2703127;85;21585;-84
2023/01/06 05:54:27;;;;;;;7.30;5.70;;;;;;;5.48;94.32;100789.92;2807040;83;20985;-84
2023/01/06 05:58:28;;;;;;;12.58;2.85;;;;;;;5.55;93.15;100793.09;2754386;84;21571;-84
2023/01/06 06:02:30;;;;;;;6.10;3.25;;;;;;;5.71;93.20;100801.91;2734014;84;21083;-83
2023/01/06 06:06:31;;;;;;;3.98;3.25;;;;;;;5.89;92.29;100798.35;2756784;83;21054;-84
2023/01/06 06:10:32;;;;;;;4.17;2.77;;;;;;;5.79;90.88;100801.50;2733396;86;21000;-84
2023/01/06 06:14:33;;;;;;;5.95;3.00;;;;;;;5.65;92.02;100805.34;2759417;83;21039;-84
2023/01/06 06:18:41;;;;;;;7.35;2.55;;;;;;;5.56;92.47;100804.91;2768527;83;21074;-84
2023/01/06 06:22:40;;;;;;;4.50;3.50;;;;;;;5.43;93.88;100794.59;2778728;83;21005;-84
2023/01/06 06:26:41;;;;;;;6.70;4.05;;;;;;;5.36;94.51;100791.90;2830937;82;21082;-83
2023/01/06 06:30:42;;;;;;;6.87;2.45;;;;;;;5.41;93.53;100785.91;2829749;82;21129;-83
2023/01/06 06:34:43;;;;;;;8.15;4.03;;;;;;;5.32;94.32;100779.33;2836819;82;21564;-83
2023/01/06 06:38:47;;;;;;;4.62;2.62;;;;;;;5.19;95.69;100772.52;2772880;82;20978;-83
2023/01/06 06:42:51;;;;;;;6.53;3.02;;;;;;;5.06;96.14;100781.98;2758374;83;21070;-84
2023/01/06 06:46:53;;;;;;;6.42;2.52;;;;;;;4.98;95.87;100774.00;2787177;83;21044;-83
2023/01/06 06:51:07;;;;;;;6.97;3.12;;;;;;;4.98;94.96;100782.36;2834820;82;21039;-82
2023/01/06 06:55:17;;;;;;;5.72;3.05;;;;;;;4.96;94.49;100783.78;2829630;82;21058;-83
2023/01/06 06:59:17;;;;;;;7.10;4.40;;;;;;;4.89;94.75;100768.34;2826548;82;21047;-81
2023/01/06 07:03:19;;;;;;;4.08;2.83;;;;;;;4.74;96.38;100772.61;2832398;82;20995;-83
2023/01/06 07:07:20;;;;;;;6.00;3.33;;;;;;;4.67;97.35;100766.30;2784596;84;21025;-83
2023/01/06 07:11:21;;;;;;;8.68;4.75;;;;;;;4.61;98.68;100766.61;2832360;82;21025;-83
2023/01/06 07:15:23;;;;;;;19.85;4.97;;;;;;;4.47;99.36;100761.16;2829810;83;21042;-83
2023/01/06 07:19:24;;;;;;;7.30;4.90;;;;;;;4.55;98.83;100772.19;2822862;82;21534;-82
2023/01/06 07:23:25;;;;;;;9.15;4.80;;;;;;;4.67;98.36;100759.71;2819895;82;21509;-83
2023/01/06 07:27:26;;;;;;;5.45;3.98;;;;;;;4.52;99.70;100763.09;2797012;83;21024;-83
2023/01/06 07:31:27;;;;;;;9.53;4.87;;;;;;;4.54;100.00;100758.63;2803189;82;21598;-83
2023/01/06 07:35:29;;;;;;;8.45;4.33;;;;;;;4.48;100.00;100761.55;2782641;83;21574;-82
2023/01/06 07:39:30;;;;;;;3.90;2.83;;;;;;;4.49;99.80;100765.44;2810876;81;21491;-83
2023/01/06 07:43:31;;;;;;;6.12;2.90;;;;;;;4.53;99.81;100757.77;2762631;83;21049;-83
2023/01/06 07:47:32;;;;;;;7.10;3.45;;;;;;;4.48;100.00;100759.78;2759254;82;21367;-82
2023/01/06 07:51:33;;;;;;;3.08;2.42;;;;;;;4.55;99.74;100757.22;2780902;84;21070;-82
2023/01/06 07:55:36;;;;;;;9.13;4.17;;;;;;;4.70;98.42;100747.69;2803488;83;21565;-82
2023/01/06 07:59:37;;;;;;;5.70;3.05;;;;;;;4.84;98.13;100739.57;2814476;83;21022;-82
2023/01/06 08:03:38;;;;;;;8.25;4.17;;;;;;;4.69;99.02;100734.12;2782012;83;21030;-82
2023/01/06 08:07:40;;;;;;;5.92;2.70;;;;;;;4.66;99.08;100726.87;2688090;83;21052;-82
2023/01/06 08:11:41;;;;;;;7.10;4.10;;;;;;;4.62;99.57;100724.84;2801581;83;21067;-82
2023/01/06 08:15:42;;;;;;;3.75;3.12;;;;;;;4.80;98.79;100722.21;2795360;83;21008;-82
2023/01/06 08:19:43;;;;;;;9.38;5.55;;;;;;;4.93;97.46;100731.20;2810228;83;21042;-83
2023/01/06 08:23:44;;;;;;;10.38;4.12;;;;;;;4.96;96.83;100724.45;2793250;82;21050;-83
2023/01/06 08:27:46;;;;;;;4.40;2.85;;;;;;;4.90;97.79;100719.95;2798213;83;21052;-83
2023/01/06 08:31:47;;;;;;;5.00;2.87;;;;;;;4.90;98.67;100716.84;2800444;83;21044;-82
2023/01/06 08:35:49;;;;;;;4.20;2.83;;;;;;;4.94;98.02;100715.77;2742275;84;21035;-83
2023/01/06 08:39:50;;;;;;;5.22;3.08;;;;;;;5.02;97.21;100706.61;2785917;83;21091;-82
2023/01/06 08:43:51;;;;;;;5.15;3.85;;;;;;;5.08;97.32;100695.73;2797963;83;21072;-81
2023/01/06 08:47:53;;;;;;;8.30;5.55;;;;;;;5.24;97.80;100694.48;2789014;83;21055;-82
2023/01/06 08:51:54;;;;;;;9.35;4.83;;;;;;;5.21;96.91;100698.12;2805251;82;20998;-81
2023/01/06 08:55:55;;;;;;;7.10;3.77;;;;;;;5.31;97.21;100699.80;2798159;83;21182;-81
2023/01/06 08:59:56;;;;;;;7.37;3.67;;;;;;;5.35;95.33;100692.59;2815553;82;21072;-81
2023/01/06 09:04:00;;;;;;;4.53;3.60;;;;;;;5.38;96.19;100687.14;2790955;83;21090;-81
2023/01/06 09:08:03;;;;;;;5.25;3.37;;;;;;;5.57;95.83;100679.06;2783563;82;21053;-81
2023/01/06 09:12:05;;;;;;;5.08;3.55;;;;;;;5.50;95.32;100674.61;2774836;83;20994;-81
2023/01/06 09:16:08;;;;;;;5.72;3.80;;;;;;;5.61;96.58;100677.98;2794096;83;21076;-81
2023/01/06 09:20:10;;;;;;;7.10;4.67;;;;;;;5.61;96.75;100667.87;2797257;83;21067;-81
2023/01/06 09:24:14;;;;;;;6.83;5.12;;;;;;;5.88;95.76;100659.35;2814398;83;21011;-81
2023/01/06 09:28:16;;;;;;;6.35;3.17;;;;;;;5.98;95.35;100646.03;2833200;83;21511;-81
2023/01/06 09:32:17;;;;;;;14.75;8.70;;;;;;;5.89;95.18;100645.21;2790081;83;21015;-81
2023/01/06 09:36:18;;;;;;;7.83;4.15;;;;;;;6.03;94.22;100644.00;2786806;83;21007;-81
2023/01/06 09:40:26;;;;;;;4.70;3.15;;;;;;;6.00;94.42;100648.11;2784605;83;21510;-81
2023/01/06 09:44:31;;;;;;;25.02;16.30;;;;;;;6.11;94.63;100647.07;2779952;83;21582;-82
2023/01/06 09:48:41;;;;;;;10.70;6.53;;;;;;;6.33;93.37;100643.18;2763178;83;21030;-81
2023/01/06 09:52:50;;;;;;;11.22;7.50;;;;;;;6.34;93.42;100643.56;2768392;83;21082;-81
2023/01/06 09:57:00;;;;;;;24.45;8.90;;;;;;;6.38;93.80;100636.28;2820380;83;21926;-81
2023/01/06 10:01:10;;;;;;;8.15;4.78;;;;;;;6.51;92.76;100632.47;2802485;83;21791;-81
2023/01/06 10:05:42;;;;;;;10.48;6.95;;;;;;;6.46;93.17;100624.81;2794213;82;21544;-81
2023/01/06 10:09:54;;;;;;;20.37;10.35;;;;;;;6.52;94.12;100625.75;2771689;83;21003;-81
2023/01/06 10:14:32;;;;;;;18.07;9.73;;;;;;;6.73;92.83;100617.97;2815794;83;21012;-81
2023/01/06 10:18:41;;;;;;;45.08;24.57;;;;;;;6.77;91.73;100611.54;2823977;82;20995;-81
2023/01/06 10:22:54;;;;;;;30.17;20.65;;;;;;;6.87;93.16;100608.70;2819149;83;21507;-82
2023/01/06 10:27:00;;;;;;;19.52;14.10;;;;;;;6.88;93.52;100601.17;2744872;83;21644;-82
2023/01/06 10:31:09;;;;;;;15.35;13.48;;;;;;;6.98;93.62;100588.23;2750956;84;21058;-82
2023/01/06 10:35:15;;;;;;;10.25;7.65;;;;;;;7.05;93.70;100602.77;2748747;84;21063;-81
2023/01/06 10:39:20;;;;;;;8.53;5.77;;;;;;;7.00;93.56;100593.78;2719689;84;21027;-82
2023/01/06 10:43:21;;;;;;;13.10;5.62;;;;;;;6.94;94.39;100574.34;2726841;84;21598;-81
2023/01/06 10:47:28;;;;;;;12.33;6.30;;;;;;;6.92;95.72;100557.72;2735524;84;21118;-81
2023/01/06 10:51:38;;;;;;;13.38;6.83;;;;;;;6.84;98.02;100553.36;2713281;84;21015;-82
2023/01/06 10:55:56;;;;;;;11.20;6.37;;;;;;;6.91;97.79;100549.41;2762322;84;21039;-81
2023/01/06 11:00:21;;;;;;;9.30;6.37;;;;;;;7.04;97.32;100542.01;2735167;84;21066;-81
2023/01/06 11:04:26;;;;;;;8.78;5.03;;;;;;;7.03;97.96;100535.88;2751301;84;21076;-81
2023/01/06 11:08:29;;;;;;;9.00;6.50;;;;;;;6.93;99.27;100526.36;2702706;85;21107;-81
2023/01/06 11:12:30;;;;;;;8.35;6.55;;;;;;;7.07;98.74;100516.68;2718095;85;21054;-81
2023/01/06 11:16:34;;;;;;;11.12;7.10;;;;;;;7.26;98.16;100510.59;2706099;85;21593;-82
2023/01/06 11:20:36;;;;;;;10.08;6.85;;;;;;;7.39;97.68;100507.16;2730692;84;21550;-81
2023/01/06 11:24:51;;;;;;;13.50;6.97;;;;;;;7.31;99.64;100501.53;2750985;84;21103;-81
2023/01/06 11:28:54;;;;;;;14.78;8.08;;;;;;;7.14;100.00;100501.64;2788275;82;21110;-81
2023/01/06 11:32:55;;;;;;;12.05;8.43;;;;;;;7.14;100.00;100492.88;2771581;83;21090;-82
2023/01/06 11:36:57;;;;;;;19.17;11.65;;;;;;;7.06;100.00;100488.53;2786294;82;21098;-81
2023/01/06 11:41:01;;;;;;;15.38;11.95;;;;;;;7.18;100.00;100471.05;2799485;83;21063;-81
2023/01/06 11:45:04;;;;;;;21.23;11.95;;;;;;;7.15;100.00;100456.21;2794271;83;21019;-81
2023/01/06 11:49:26;;;;;;;21.00;10.10;;;;;;;7.19;100.00;100448.44;2809162;83;21526;-81
2023/01/06 11:53:28;;;;;;;12.35;8.63;;;;;;;7.14;100.00;100446.58;2794925;82;21055;-81
2023/01/06 11:57:56;;;;;;;15.03;10.28;;;;;;;7.22;100.00;100441.63;2811940;84;21043;-81
2023/01/06 12:01:59;;;;;;;17.23;10.35;;;;;;;7.35;100.00;100417.84;2780694;83;21019;-81
2023/01/06 12:06:17;;;;;;;18.60;10.53;;;;;;;7.42;100.00;100408.56;2797237;82;20984;-81
2023/01/06 12:10:26;;;;;;;22.50;16.15;;;;;;;7.38;100.00;100396.95;2783940;82;21047;-82
2023/01/06 12:14:34;;;;;;;20.23;13.62;;;;;;;7.57;100.00;100386.83;2762042;82;21103;-82
2023/01/06 12:18:40;;;;;;;13.55;9.50;;;;;;;7.74;100.00;100395.89;2804453;82;21578;-82
2023/01/06 12:22:48;;;;;;;24.07;12.70;;;;;;;7.75;100.00;100390.50;2813191;83;21019;-81
2023/01/06 12:26:51;;;;;;;18.50;10.75;;;;;;;7.94;100.00;100391.39;2755209;84;21036;-82
2023/01/06 12:31:33;;;;;;;30.08;11.85;;;;;;;8.13;100.00;100378.19;2716547;85;21574;-82
2023/01/06 12:35:36;;;;;;;15.93;10.40;;;;;;;8.28;100.00;100370.98;2698290;85;21083;-82
2023/01/06 12:40:19;;;;;;;23.65;19.77;;;;;;;8.33;100.00;100373.28;2691192;85;21098;-81
2023/01/06 12:44:50;;;;;;;71.75;56.20;;;;;;;8.41;100.00;100363.83;2713825;85;21127;-82
2023/01/06 12:49:02;;;;;;;200.82;111.25;;;;;;;8.48;100.00;100367.39;2825776;81;21053;-82
2023/01/06 12:53:20;;;;;;;77.95;33.45;;;;;;;8.56;100.00;100361.93;2851826;81;21038;-82
2023/01/06 12:57:44;;;;;;;48.13;19.15;;;;;;;8.59;100.00;100356.86;2838287;81;21542;-81
2023/01/06 13:01:56;;;;;;;33.42;19.35;;;;;;;8.70;100.00;100345.02;2838973;81;21079;-82
2023/01/06 13:06:19;;;;;;;51.45;27.55;;;;;;;8.87;100.00;100338.95;2778245;82;21086;-82
2023/01/06 13:10:37;;;;;;;24.70;12.28;;;;;;;9.06;100.00;100333.11;2797596;83;21061;-82
2023/01/06 13:15:15;;;;;;;26.90;14.03;;;;;;;9.02;100.00;100340.07;2738828;84;21558;-82
2023/01/06 13:19:44;;;;;;;25.35;13.75;;;;;;;9.11;100.00;100340.23;2803626;82;21665;-81
2023/01/06 13:24:18;;;;;;;117.35;71.40;;;;;;;9.16;100.00;100331.94;2756832;84;21080;-81
2023/01/06 13:28:36;;;;;;;397.05;265.87;;;;;;;9.12;100.00;100318.53;2807790;82;21087;-82
2023/01/06 13:33:11;;;;;;;243.35;151.95;;;;;;;9.19;100.00;100323.73;2807342;82;21062;-82
2023/01/06 13:37:30;;;;;;;50.52;26.17;;;;;;;9.39;100.00;100334.64;2789196;83;21125;-82
2023/01/06 13:41:35;;;;;;;29.65;17.67;;;;;;;9.58;100.00;100334.09;2828995;82;21093;-82
2023/01/06 13:45:41;;;;;;;22.17;13.73;;;;;;;9.57;100.00;100330.58;2835025;82;21027;-82
2023/01/06 13:49:42;;;;;;;26.60;15.00;;;;;;;9.66;100.00;100333.02;2776259;83;21372;-82
2023/01/06 13:53:45;;;;;;;25.10;18.37;;;;;;;9.76;100.00;100325.67;2764321;82;21794;-82
2023/01/06 13:57:46;;;;;;;18.00;10.68;;;;;;;9.91;100.00;100324.45;2829453;83;21033;-82
2023/01/06 14:01:49;;;;;;;9.68;6.28;;;;;;;10.04;100.00;100329.67;2802867;82;21091;-82
2023/01/06 14:05:53;;;;;;;12.43;5.72;;;;;;;10.15;100.00;100325.66;2784369;82;30353;-82
2023/01/06 14:09:54;;;;;;;5.58;3.70;;;;;;;10.25;100.00;100330.25;2807653;82;21084;-82
2023/01/06 14:13:59;;;;;;;15.60;8.48;;;;;;;10.24;100.00;100326.73;2801619;83;21075;-82
2023/01/06 14:18:02;;;;;;;10.25;5.42;;;;;;;10.27;100.00;100319.84;2771428;82;20983;-82
2023/01/06 14:22:20;;;;;;;7.65;3.95;;;;;;;10.27;100.00;100307.87;2781974;83;21074;-82
2023/01/06 14:26:44;;;;;;;5.08;3.15;;;;;;;10.28;100.00;100297.60;2825696;83;21594;-82
2023/01/06 14:30:47;;;;;;;7.05;4.87;;;;;;;10.29;100.00;100297.13;2791272;83;21066;-82
2023/01/06 14:35:01;;;;;;;7.62;4.75;;;;;;;10.38;100.00;100311.00;2797448;83;21035;-82
2023/01/06 14:39:08;;;;;;;4.15;3.20;;;;;;;10.42;100.00;100315.16;2805429;83;21581;-82
2023/01/06 14:43:42;;;;;;;4.30;3.40;;;;;;;10.43;100.00;100311.52;2821566;83;21070;-81
2023/01/06 14:47:48;;;;;;;5.28;3.72;;;;;;;10.49;100.00;100305.34;2825211;83;21082;-82
2023/01/06 14:51:53;;;;;;;5.72;4.40;;;;;;;10.57;100.00;100306.88;2783438;83;21105;-81
2023/01/06 14:55:55;;;;;;;8.45;5.58;;;;;;;10.63;100.00;100310.86;2810907;82;21011;-82
2023/01/06 15:00:23;;;;;;;9.33;6.45;;;;;;;10.67;100.00;100323.79;2801753;82;21016;-82
2023/01/06 15:04:32;;;;;;;7.15;5.00;;;;;;;10.70;100.00;100323.53;2786789;83;21031;-82
2023/01/06 15:08:34;;;;;;;4.35;3.92;;;;;;;10.65;100.00;100319.55;2787380;82;21630;-82
2023/01/06 15:12:35;;;;;;;5.83;3.77;;;;;;;10.66;100.00;100314.13;2800260;83;21129;-82
2023/01/06 15:16:38;;;;;;;5.87;2.92;;;;;;;10.72;100.00;100315.44;2731105;84;21041;-82
2023/01/06 15:20:42;;;;;;;4.97;4.42;;;;;;;10.71;100.00;100323.89;2780530;83;21650;-82
2023/01/06 15:24:43;;;;;;;3.85;2.72;;;;;;;10.71;100.00;100324.39;2783369;82;21055;-82
2023/01/06 15:29:04;;;;;;;3.50;3.12;;;;;;;10.68;100.00;100326.81;2789934;82;21127;-82
2023/01/06 15:33:09;;;;;;;4.70;3.45;;;;;;;10.70;100.00;100318.21;2820809;82;21003;-81
2023/01/06 15:37:21;;;;;;;4.05;3.35;;;;;;;10.69;100.00;100324.50;2780912;83;21118;-82
2023/01/06 15:41:32;;;;;;;3.83;2.95;;;;;;;10.66;100.00;100318.11;2739093;83;21558;-82
2023/01/06 15:45:34;;;;;;;3.47;3.17;;;;;;;10.52;100.00;100314.39;2772294;82;21087;-81
2023/01/06 15:49:52;;;;;;;3.95;2.80;;;;;;;10.48;100.00;100320.44;2756598;84;21058;-81
2023/01/06 15:53:56;;;;;;;4.08;2.92;;;;;;;10.49;100.00;100315.98;2758089;83;21023;-82
2023/01/06 15:58:09;;;;;;;4.40;3.17;;;;;;;10.46;100.00;100318.89;2716099;84;21062;-82
2023/01/06 16:02:17;;;;;;;6.50;4.25;;;;;;;10.45;100.00;100324.68;2725268;84;21082;-82
2023/01/06 16:06:35;;;;;;;5.97;4.53;;;;;;;10.46;100.00;100324.20;2754656;83;21105;-81
2023/01/06 16:10:37;;;;;;;6.62;4.97;;;;;;;10.37;100.00;100331.91;2802461;83;21011;-82
2023/01/06 16:14:42;;;;;;;8.05;3.92;;;;;;;10.33;100.00;100331.80;2743748;83;21070;-82
2023/01/06 16:18:43;;;;;;;5.47;4.08;;;;;;;10.37;100.00;100342.55;2736389;82;21634;-82
2023/01/06 16:22:50;;;;;;;5.62;4.05;;;;;;;10.40;100.00;100348.11;2823934;83;21058;-82
2023/01/06 16:27:01;;;;;;;5.65;3.05;;;;;;;10.40;100.00;100351.63;2822066;83;21719;-82
2023/01/06 16:31:07;;;;;;;3.98;2.92;;;;;;;10.37;100.00;100354.52;2768447;82;21110;-82
2023/01/06 16:35:16;;;;;;;3.80;3.40;;;;;;;10.36;100.00;100364.79;2775117;83;21028;-82
2023/01/06 16:39:18;;;;;;;4.20;3.10;;;;;;;10.43;100.00;100355.41;2810057;83;21585;-82
2023/01/06 16:43:19;;;;;;;8.23;4.22;;;;;;;10.39;100.00;100373.02;2768682;83;21089;-83
2023/01/06 16:47:20;;;;;;;3.47;2.65;;;;;;;10.45;100.00;100361.08;2797307;83;21020;-82
2023/01/06 16:51:22;;;;;;;3.72;2.52;;;;;;;10.49;100.00;100357.20;2804457;82;21509;-81
2023/01/06 16:55:23;;;;;;;3.02;2.50;;;;;;;10.44;100.00;100372.19;2823863;82;21100;-82
2023/01/06 16:59:27;;;;;;;4.65;2.90;;;;;;;10.47;100.00;100364.46;2821172;82;21084;-82
2023/01/06 17:03:33;;;;;;;11.45;4.50;;;;;;;10.49;100.00;100366.51;2779648;83;20988;-81
2023/01/06 17:07:34;;;;;;;7.42;3.47;;;;;;;10.45;100.00;100372.55;2830151;82;21065;-82
2023/01/06 17:11:37;;;;;;;3.17;2.67;;;;;;;10.41;100.00;100375.92;2808454;82;21068;-82
2023/01/06 17:15:38;;;;;;;7.00;2.75;;;;;;;10.39;100.00;100369.86;2804564;82;21001;-82
2023/01/06 17:19:40;;;;;;;3.95;3.10;;;;;;;10.37;100.00;100388.25;2812535;83;21046;-82
2023/01/06 17:24:10;;;;;;;3.37;1.90;;;;;;;10.40;100.00;100391.99;2793336;82;21004;-82
2023/01/06 17:28:19;;;;;;;6.20;3.98;;;;;;;10.44;100.00;100388.14;2794407;82;21527;-82
2023/01/06 17:32:25;;;;;;;5.70;3.92;;;;;;;10.45;100.00;100386.34;2827103;82;22349;-82
2023/01/06 17:36:35;;;;;;;4.75;2.62;;;;;;;10.45;100.00;100391.16;2782605;83;21039;-82
2023/01/06 17:40:37;;;;;;;3.35;2.37;;;;;;;10.51;100.00;100391.16;2801067;83;21043;-82
2023/01/06 17:44:50;;;;;;;4.33;2.25;;;;;;;10.53;100.00;100383.91;2830186;83;20998;-82
2023/01/06 17:49:02;;;;;;;3.87;2.62;;;;;;;10.53;100.00;100394.55;2813400;82;21684;-82
2023/01/06 17:57:41;;;;;;;3.00;2.75;;;;;;;10.52;100.00;100399.50;2789584;84;21098;-82
2023/01/06 18:01:42;;;;;;;5.15;2.87;;;;;;;10.46;100.00;100407.98;2812662;82;21313;-81
2023/01/06 18:06:01;;;;;;;2.20;2.00;;;;;;;10.41;100.00;100415.81;2795534;83;21087;-82
2023/01/06 18:10:07;;;;;;;5.25;2.80;;;;;;;10.46;100.00;100416.79;2780953;84;21077;-82
2023/01/06 18:14:37;;;;;;;9.90;4.65;;;;;;;10.47;100.00;100430.95;2829077;82;21435;-81
2023/01/06 18:18:40;;;;;;;7.28;4.50;;;;;;;10.49;100.00;100436.98;2804958;83;21041;-82
2023/01/06 18:22:41;;;;;;;4.85;4.15;;;;;;;10.46;100.00;100432.75;2813208;82;21090;-81
2023/01/06 18:27:01;;;;;;;5.50;3.45;;;;;;;10.36;100.00;100441.91;2802073;83;21004;-82
2023/01/06 18:31:05;;;;;;;10.30;4.10;;;;;;;10.42;100.00;100440.14;2753461;83;21055;-82
2023/01/06 18:35:17;;;;;;;5.42;4.05;;;;;;;10.36;100.00;100444.56;2804655;83;21093;-81
2023/01/06 18:39:27;;;;;;;3.25;2.15;;;;;;;10.44;100.00;100438.67;2796345;84;21468;-82
2023/01/06 18:43:29;;;;;;;4.00;3.60;;;;;;;10.38;100.00;100441.80;2754422;84;21539;-81
2023/01/06 18:47:30;;;;;;;7.72;4.22;;;;;;;10.30;100.00;100447.71;2778595;83;21083;-82
2023/01/06 18:51:31;;;;;;;5.15;3.12;;;;;;;10.29;100.00;100450.84;2786710;83;21071;-82
2023/01/06 18:55:44;;;;;;;4.53;3.58;;;;;;;10.24;100.00;100458.33;2781113;83;21039;-82
2023/01/06 18:59:45;;;;;;;6.22;3.67;;;;;;;10.25;100.00;100459.20;2812904;83;21015;-82
2023/01/06 19:04:27;;;;;;;6.33;3.92;;;;;;;10.22;100.00;100458.94;2787199;83;21087;-82
2023/01/06 19:08:33;;;;;;;7.20;4.05;;;;;;;10.25;100.00;100467.17;2796439;83;21110;-82
2023/01/06 19:12:35;;;;;;;6.65;3.50;;;;;;;10.29;100.00;100472.11;2764748;85;21038;-82
